Time;durP1;ratioP1;P1;durP2;ratioP2;P2;SDS_P1;SDS_P2;PMS_P1;PMS_P2;Temp;Humidity;BMP_temperature;BMP_pressure;BME280_temperature;BME280_humidity;BME280_pressure;Samples;Min_cycle;Max_cycle;Signal;HPM_P1;HPM_P2
2023/09/09 00:02:15;;;;;;;;;;;;;;;21.30;28.45;98272.50;5020900;28;1115;-79
2023/09/09 00:04:42;;;;;;;;;;;;;;;21.27;28.51;98279.78;5037700;28;1041;-78
2023/09/09 00:07:11;;;;;;;;;;;;;;;21.43;28.56;98276.25;5021341;28;842;-78
2023/09/09 00:09:37;;;;;;;;;;;;;;;21.65;27.96;98270.91;5004880;28;832;-78
2023/09/09 00:12:03;;;;;;;;;;;;;;;21.65;28.29;98272.94;5004094;28;1120;-78
2023/09/09 00:14:29;;;;;;;;;;;;;;;21.33;28.58;98266.75;5036655;28;1985;-78
2023/09/09 00:16:54;;;;;;;;;;;;;;;21.17;28.77;98275.16;5020758;28;903;-77
2023/09/09 00:19:21;;;;;;;;;;;;;;;21.28;28.66;98267.22;5004316;28;1006;-79
2023/09/09 00:21:47;;;;;;;;;;;;;;;21.66;28.16;98261.22;5004040;28;1256;-78
2023/09/09 00:24:12;;;;;;;;;;;;;;;21.32;28.58;98270.03;5020172;28;830;-78
2023/09/09 00:26:38;;;;;;;;;;;;;;;21.47;28.09;98259.19;5036666;28;987;-78
2023/09/09 00:29:03;;;;;;;;;;;;;;;21.42;28.14;98257.69;5020005;28;942;-79
2023/09/09 00:31:29;;;;;;;;;;;;;;;21.42;28.24;98257.69;5032445;28;1223;-78
2023/09/09 00:33:54;;;;;;;;;;;;;;;21.46;28.19;98249.91;5058306;28;970;-78
2023/09/09 00:36:20;;;;;;;;;;;;;;;21.45;28.16;98247.50;5040442;28;1965;-78
2023/09/09 00:38:45;;;;;;;;;;;;;;;21.00;29.09;98256.53;5058186;28;997;-78
2023/09/09 00:41:12;;;;;;;;;;;;;;;21.25;28.79;98253.97;5040836;28;1226;-78
2023/09/09 00:43:40;;;;;;;;;;;;;;;21.29;28.58;98254.69;5040822;28;845;-78
2023/09/09 00:46:06;;;;;;;;;;;;;;;21.42;28.26;98242.72;5057286;28;904;-79
2023/09/09 00:48:32;;;;;;;;;;;;;;;21.15;28.57;98254.19;5040838;28;1150;-78
2023/09/09 00:50:57;;;;;;;;;;;;;;;21.22;28.45;98254.84;5057718;28;1212;-78
2023/09/09 00:53:24;;;;;;;;;;;;;;;21.11;28.93;98254.25;5040950;28;1130;-78
2023/09/09 00:55:49;;;;;;;;;;;;;;;21.40;28.37;98243.19;5058710;28;1902;-78
2023/09/09 00:58:15;;;;;;;;;;;;;;;21.31;28.42;98252.25;5040958;28;1185;-78
2023/09/09 01:00:40;;;;;;;;;;;;;;;21.31;28.58;98243.75;5040976;28;1209;-78
2023/09/09 01:03:06;;;;;;;;;;;;;;;21.27;28.69;98257.16;5057578;28;783;-78
2023/09/09 01:05:32;;;;;;;;;;;;;;;21.02;28.74;98248.38;5040362;28;1234;-78
2023/09/09 01:07:57;;;;;;;;;;;;;;;21.27;28.66;98245.03;5040321;28;1127;-78
2023/09/09 01:10:23;;;;;;;;;;;;;;;21.52;28.13;98242.50;5058047;28;1168;-78
2023/09/09 01:12:50;;;;;;;;;;;;;;;21.41;28.35;98238.31;5040585;28;1130;-79
2023/09/09 01:15:15;;;;;;;;;;;;;;;21.45;28.18;98241.84;5038623;28;1906;-78
2023/09/09 01:17:41;;;;;;;;;;;;;;;21.63;27.86;98245.09;5039070;28;974;-79
2023/09/09 01:20:16;;;;;;;;;;;;;;;21.30;28.29;98239.34;5039058;28;1059;-79
2023/09/09 01:22:43;;;;;;;;;;;;;;;21.39;28.50;98224.56;5040121;28;1127;-79
2023/09/09 01:25:09;;;;;;;;;;;;;;;21.60;28.02;98240.28;5038847;28;1206;-79
2023/09/09 01:27:35;;;;;;;;;;;;;;;21.40;28.26;98231.84;5038997;28;1123;-78
2023/09/09 01:30:01;;;;;;;;;;;;;;;21.14;28.75;98242.09;5038990;28;877;-78
2023/09/09 01:32:26;;;;;;;;;;;;;;;21.22;28.61;98235.03;5039069;28;1077;-78
2023/09/09 01:34:52;;;;;;;;;;;;;;;21.30;28.25;98233.69;5038506;28;1975;-78
2023/09/09 01:37:18;;;;;;;;;;;;;;;21.42;27.93;98228.56;5039010;28;1206;-78
2023/09/09 01:39:43;;;;;;;;;;;;;;;21.35;28.41;98235.19;5038746;28;1114;-78
2023/09/09 01:42:09;;;;;;;;;;;;;;;21.22;28.33;98232.19;5038789;28;1178;-77
2023/09/09 01:44:34;;;;;;;;;;;;;;;20.95;28.95;98223.88;5038750;28;1060;-78
2023/09/09 01:47:00;;;;;;;;;;;;;;;21.41;28.32;98232.66;5052716;28;1433;-78
2023/09/09 01:49:25;;;;;;;;;;;;;;;21.37;28.26;98223.44;5038977;28;1178;-78
2023/09/09 01:51:51;;;;;;;;;;;;;;;21.47;28.21;98219.56;5055825;28;870;-78
2023/09/09 01:54:16;;;;;;;;;;;;;;;21.47;28.22;98219.56;5039348;28;1161;-78
2023/09/09 01:56:42;;;;;;;;;;;;;;;21.48;28.39;98221.16;5056737;28;1910;-78
2023/09/09 01:59:07;;;;;;;;;;;;;;;21.56;28.07;98217.72;5039683;28;1350;-79
2023/09/09 02:01:33;;;;;;;;;;;;;;;21.25;28.63;98214.34;5039523;28;1321;-79
2023/09/09 02:03:58;;;;;;;;;;;;;;;21.31;28.34;98223.94;5038298;28;909;-78
2023/09/09 02:06:26;;;;;;;;;;;;;;;21.45;28.35;98210.69;5038198;28;1059;-79
2023/09/09 02:08:51;;;;;;;;;;;;;;;21.61;27.71;98219.25;5021826;28;1234;-79
2023/09/09 02:11:17;;;;;;;;;;;;;;;21.54;28.12;98216.56;5038066;28;1084;-79
2023/09/09 02:13:43;;;;;;;;;;;;;;;21.85;27.37;98214.22;5034814;28;1234;-78
2023/09/09 02:16:09;;;;;;;;;;;;;;;21.50;28.16;98213.00;5018562;28;1990;-78
2023/09/09 02:18:37;;;;;;;;;;;;;;;21.35;28.40;98220.22;5001821;28;886;-78
2023/09/09 02:21:03;;;;;;;;;;;;;;;21.43;28.23;98218.84;5018762;28;798;-78
2023/09/09 02:23:29;;;;;;;;;;;;;;;21.42;28.27;98205.94;5018002;28;867;-78
2023/09/09 02:25:55;;;;;;;;;;;;;;;21.56;27.78;98211.28;4982384;28;1202;-78
2023/09/09 02:28:20;;;;;;;;;;;;;;;21.62;27.62;98203.06;4995102;28;1099;-79
2023/09/09 02:30:46;;;;;;;;;;;;;;;21.32;28.33;98208.56;4995219;28;920;-78
2023/09/09 02:33:12;;;;;;;;;;;;;;;21.26;28.45;98198.97;4979178;28;825;-79
2023/09/09 02:35:41;;;;;;;;;;;;;;;21.22;28.28;98214.44;4977820;28;1981;-77
2023/09/09 02:38:07;;;;;;;;;;;;;;;21.50;28.27;98202.50;5015013;28;815;-77
2023/09/09 02:40:32;;;;;;;;;;;;;;;21.30;28.23;98207.41;5014693;28;1250;-78
2023/09/09 02:42:58;;;;;;;;;;;;;;;21.27;28.55;98211.88;5014932;28;840;-78
2023/09/09 02:45:24;;;;;;;;;;;;;;;21.33;28.60;98204.47;5014988;28;960;-77
2023/09/09 02:47:49;;;;;;;;;;;;;;;21.47;28.31;98202.59;4982031;28;1410;-77
2023/09/09 02:50:15;;;;;;;;;;;;;;;21.62;28.05;98203.06;4982218;28;1304;-78
2023/09/09 02:52:40;;;;;;;;;;;;;;;21.42;28.29;98211.59;4998350;28;1330;-77
2023/09/09 02:55:06;;;;;;;;;;;;;;;21.19;28.82;98207.63;4998289;28;1982;-77
2023/09/09 02:57:31;;;;;;;;;;;;;;;21.22;28.51;98206.72;5028731;28;1262;-77
2023/09/09 02:59:57;;;;;;;;;;;;;;;21.26;28.50;98210.28;5034368;28;1321;-77
2023/09/09 03:02:23;;;;;;;;;;;;;;;21.00;28.88;98214.09;5041777;28;1058;-78
2023/09/09 03:04:48;;;;;;;;;;;;;;;21.31;28.34;98212.63;5041738;28;1163;-78
2023/09/09 03:07:14;;;;;;;;;;;;;;;21.03;28.81;98207.53;5058457;28;843;-77
2023/09/09 03:09:40;;;;;;;;;;;;;;;21.01;29.06;98215.69;5024875;28;1052;-77
2023/09/09 03:12:06;;;;;;;;;;;;;;;20.91;29.29;98216.69;5058241;28;1264;-77
2023/09/09 03:14:32;;;;;;;;;;;;;;;21.19;28.53;98210.44;5058762;28;1994;-77
2023/09/09 03:17:01;;;;;;;;;;;;;;;21.50;28.36;98204.50;5041579;28;1119;-77
2023/09/09 03:19:27;;;;;;;;;;;;;;;21.31;28.76;98206.97;5058097;28;1224;-77
2023/09/09 03:21:52;;;;;;;;;;;;;;;21.37;28.59;98210.06;5058380;28;859;-77
2023/09/09 03:24:18;;;;;;;;;;;;;;;21.02;28.85;98205.94;5057941;28;1401;-78
2023/09/09 03:26:43;;;;;;;;;;;;;;;21.19;28.69;98204.78;5041488;28;1344;-77
2023/09/09 03:29:09;;;;;;;;;;;;;;;20.96;29.10;98197.19;5058337;28;1126;-77
2023/09/09 03:31:35;;;;;;;;;;;;;;;21.39;28.40;98203.97;5041394;28;1214;-77
2023/09/09 03:34:00;;;;;;;;;;;;;;;21.10;28.99;98206.59;5061123;28;1294;-77
2023/09/09 03:36:26;;;;;;;;;;;;;;;21.14;28.69;98199.66;5044142;28;1973;-77
2023/09/09 03:38:51;;;;;;;;;;;;;;;21.40;28.42;98211.22;5044333;28;1160;-77
2023/09/09 03:41:17;;;;;;;;;;;;;;;21.20;28.81;98203.56;5042481;28;1080;-77
2023/09/09 03:43:43;;;;;;;;;;;;;;;21.31;28.79;98212.63;5040831;28;1079;-77
2023/09/09 03:46:08;;;;;;;;;;;;;;;21.09;29.04;98205.81;5041155;28;1226;-77
2023/09/09 03:48:34;;;;;;;;;;;;;;;21.37;28.39;98217.78;5040869;28;1233;-78
2023/09/09 03:51:00;;;;;;;;;;;;;;;21.27;28.62;98219.56;5041207;28;1324;-77
2023/09/09 03:53:26;;;;;;;;;;;;;;;21.15;28.74;98223.88;5024489;28;1115;-77
2023/09/09 03:55:52;;;;;;;;;;;;;;;21.41;28.50;98215.66;5040898;28;1914;-77
2023/09/09 03:58:18;;;;;;;;;;;;;;;21.42;28.30;98217.25;5040655;28;1344;-77
2023/09/09 04:00:46;;;;;;;;;;;;;;;21.13;28.77;98222.69;5040988;28;1085;-77
2023/09/09 04:03:12;;;;;;;;;;;;;;;21.37;28.32;98223.44;5024321;28;1452;-77
2023/09/09 04:05:39;;;;;;;;;;;;;;;21.55;28.09;98209.66;5040691;28;1127;-77
2023/09/09 04:08:08;;;;;;;;;;;;;;;21.17;28.64;98212.91;5023943;28;1130;-77
2023/09/09 04:10:34;;;;;;;;;;;;;;;21.42;28.20;98222.91;5040345;28;1126;-78
2023/09/09 04:13:00;;;;;;;;;;;;;;;21.17;28.94;98217.75;5036142;28;1513;-77
2023/09/09 04:15:25;;;;;;;;;;;;;;;21.31;28.64;98220.31;5050714;28;1902;-78
2023/09/09 04:17:51;;;;;;;;;;;;;;;21.29;28.62;98212.22;5054966;28;699;-77
2023/09/09 04:20:16;;;;;;;;;;;;;;;20.80;29.41;98212.06;5054766;28;1249;-77
2023/09/09 04:22:42;;;;;;;;;;;;;;;21.12;28.93;98209.78;5037963;28;1178;-77
2023/09/09 04:25:07;;;;;;;;;;;;;;;21.22;28.80;98215.22;5055069;28;825;-78
2023/09/09 04:27:33;;;;;;;;;;;;;;;21.19;28.55;98216.09;5038458;28;1067;-77
2023/09/09 04:29:59;;;;;;;;;;;;;;;21.32;28.41;98214.22;5020498;28;1124;-77
2023/09/09 04:32:24;;;;;;;;;;;;;;;21.22;28.53;98203.09;5037969;28;1210;-78
2023/09/09 04:34:50;;;;;;;;;;;;;;;21.28;28.43;98216.28;5038505;28;1902;-77
2023/09/09 04:37:16;;;;;;;;;;;;;;;21.26;28.43;98206.66;5038605;28;865;-77
2023/09/09 04:39:41;;;;;;;;;;;;;;;21.09;29.00;98211.47;5037386;28;1223;-77
2023/09/09 04:42:07;;;;;;;;;;;;;;;21.35;28.60;98209.72;5021250;28;1162;-78
2023/09/09 04:44:33;;;;;;;;;;;;;;;21.12;28.82;98210.59;5037624;28;1236;-78
2023/09/09 04:46:58;;;;;;;;;;;;;;;21.27;28.62;98211.06;5037375;28;1292;-76
2023/09/09 04:49:24;;;;;;;;;;;;;;;21.16;29.13;98214.13;5037762;28;1246;-77
2023/09/09 04:51:50;;;;;;;;;;;;;;;21.19;28.73;98210.44;5037270;28;1268;-76
2023/09/09 04:54:18;;;;;;;;;;;;;;;21.12;29.03;98215.44;5037412;28;1184;-77
2023/09/09 04:56:44;;;;;;;;;;;;;;;21.19;28.99;98215.28;5016521;28;2000;-77
2023/09/09 04:59:12;;;;;;;;;;;;;;;21.03;29.22;98210.38;4999909;28;1203;-78
2023/09/09 05:01:38;;;;;;;;;;;;;;;21.09;28.92;98217.13;5016524;28;1106;-77
2023/09/09 05:04:04;;;;;;;;;;;;;;;21.31;28.67;98212.63;5016183;28;1175;-79
2023/09/09 05:06:30;;;;;;;;;;;;;;;21.33;28.76;98215.81;4980404;28;1165;-78
2023/09/09 05:08:56;;;;;;;;;;;;;;;21.23;28.93;98219.63;4976481;28;1399;-79
2023/09/09 05:11:22;;;;;;;;;;;;;;;21.11;29.10;98213.84;4976934;28;1305;-78
2023/09/09 05:13:47;;;;;;;;;;;;;;;21.10;29.02;98213.06;4976784;28;918;-79
2023/09/09 05:16:13;;;;;;;;;;;;;;;21.12;29.08;98221.91;4976746;28;1926;-78
2023/09/09 05:18:39;;;;;;;;;;;;;;;21.41;28.77;98219.28;4960720;28;1187;-78
2023/09/09 05:21:04;;;;;;;;;;;;;;;21.26;28.81;98226.47;4977441;28;866;-78
2023/09/09 05:23:30;;;;;;;;;;;;;;;21.37;28.88;98226.25;4960533;28;1112;-78
2023/09/09 05:25:55;;;;;;;;;;;;;;;20.88;29.55;98226.03;4960541;28;1158;-78
2023/09/09 05:28:21;;;;;;;;;;;;;;;21.32;28.95;98231.19;4975514;28;1300;-77
2023/09/09 05:30:47;;;;;;;;;;;;;;;21.38;28.80;98234.31;5010810;28;1602;-78
2023/09/09 05:33:12;;;;;;;;;;;;;;;21.06;29.13;98241.41;4995989;28;1519;-77
2023/09/09 05:35:38;;;;;;;;;;;;;;;20.98;29.28;98239.16;4995715;28;1926;-78
2023/09/09 05:38:03;;;;;;;;;;;;;;;21.27;28.84;98234.50;4979866;28;1162;-78
2023/09/09 05:40:29;;;;;;;;;;;;;;;21.37;28.81;98240.41;5008642;28;1470;-78
2023/09/09 05:42:54;;;;;;;;;;;;;;;21.49;28.48;98239.72;4998845;28;1553;-78
2023/09/09 05:45:20;;;;;;;;;;;;;;;21.36;28.79;98247.31;5015285;28;1622;-78
2023/09/09 05:47:46;;;;;;;;;;;;;;;21.33;29.05;98249.78;4982510;28;1331;-77
2023/09/09 05:50:12;;;;;;;;;;;;;;;21.36;28.81;98247.31;4982994;28;1129;-78
2023/09/09 05:52:38;;;;;;;;;;;;;;;21.70;28.23;98247.75;4983083;28;1292;-78
2023/09/09 05:55:04;;;;;;;;;;;;;;;21.22;29.07;98257.66;4982868;28;1990;-78
2023/09/09 05:57:32;;;;;;;;;;;;;;;21.49;28.88;98256.72;4982688;28;1434;-78
2023/09/09 05:59:58;;;;;;;;;;;;;;;21.35;29.15;98257.84;4966927;28;1103;-78
2023/09/09 06:02:24;;;;;;;;;;;;;;;21.30;29.38;98267.66;4997904;28;1166;-77
2023/09/09 06:04:49;;;;;;;;;;;;;;;21.27;28.99;98268.47;4998507;28;1290;-77
2023/09/09 06:07:15;;;;;;;;;;;;;;;21.05;29.52;98273.00;5015177;28;1320;-78
2023/09/09 06:09:41;;;;;;;;;;;;;;;21.19;29.35;98275.53;5017221;28;1256;-78
2023/09/09 06:12:06;;;;;;;;;;;;;;;21.11;29.48;98276.09;5034837;28;1251;-78
2023/09/09 06:14:32;;;;;;;;;;;;;;;21.12;29.63;98283.34;5018552;28;1043;-77
2023/09/09 06:16:58;;;;;;;;;;;;;;;21.25;29.31;98287.94;5018022;28;1914;-77
2023/09/09 06:19:23;;;;;;;;;;;;;;;21.16;29.55;98287.72;5034761;28;859;-78
2023/09/09 06:21:49;;;;;;;;;;;;;;;21.56;29.03;98280.03;5002084;28;1085;-78
2023/09/09 06:24:15;;;;;;;;;;;;;;;21.59;28.81;98281.16;5018112;28;918;-78
2023/09/09 06:26:42;;;;;;;;;;;;;;;21.35;29.51;98288.16;4969834;28;1147;-78
2023/09/09 06:29:08;;;;;;;;;;;;;;;21.04;29.69;98282.72;5001921;28;1234;-78
2023/09/09 06:31:35;;;;;;;;;;;;;;;21.29;29.73;98294.28;5001817;28;1115;-78
2023/09/09 06:34:01;;;;;;;;;;;;;;;21.35;29.24;98286.16;5034469;28;810;-78
2023/09/09 06:36:26;;;;;;;;;;;;;;;21.42;29.39;98290.84;5033373;28;1925;-78
2023/09/09 06:38:52;;;;;;;;;;;;;;;21.32;29.35;98293.47;5021579;28;1339;-78
2023/09/09 06:41:18;;;;;;;;;;;;;;;21.08;29.85;98297.56;5038114;28;997;-78
2023/09/09 06:43:43;;;;;;;;;;;;;;;21.37;29.50;98288.53;5054373;28;1405;-77
2023/09/09 06:46:09;;;;;;;;;;;;;;;21.54;29.24;98298.66;5054532;28;1253;-77
2023/09/09 06:48:34;;;;;;;;;;;;;;;21.43;29.25;98304.56;5018387;28;957;-77
2023/09/09 06:51:00;;;;;;;;;;;;;;;21.36;29.68;98293.41;5068524;28;825;-77
2023/09/09 06:53:25;;;;;;;;;;;;;;;21.64;29.25;98300.47;5051995;28;947;-77
2023/09/09 06:55:51;;;;;;;;;;;;;;;21.54;29.38;98298.66;5036645;28;1954;-77
2023/09/09 06:58:17;;;;;;;;;;;;;;;21.85;28.88;98297.16;5068567;28;1154;-77
2023/09/09 07:00:42;;;;;;;;;;;;;;;21.51;29.35;98299.56;5035337;28;898;-78
2023/09/09 07:03:08;;;;;;;;;;;;;;;21.61;29.42;98292.88;5052013;28;928;-77
2023/09/09 07:05:34;;;;;;;;;;;;;;;21.55;29.26;98300.25;5035483;28;898;-78
2023/09/09 07:08:00;;;;;;;;;;;;;;;21.43;29.54;98293.25;5052153;28;903;-78
2023/09/09 07:10:25;;;;;;;;;;;;;;;21.18;30.06;98298.59;5035283;28;1218;-78
2023/09/09 07:12:51;;;;;;;;;;;;;;;21.46;29.61;98300.88;5017571;28;1104;-77
2023/09/09 07:15:17;;;;;;;;;;;;;;;21.52;29.30;98299.13;5033933;28;1914;-77
2023/09/09 07:17:48;;;;;;;;;;;;;;;21.46;29.43;98302.91;5033982;28;966;-77
2023/09/09 07:20:14;;;;;;;;;;;;;;;21.62;29.14;98283.13;5050145;28;1130;-78
2023/09/09 07:22:39;;;;;;;;;;;;;;;21.53;29.42;98288.59;5050676;28;1108;-77
2023/09/09 07:25:05;;;;;;;;;;;;;;;21.42;29.65;98288.03;5050906;28;1368;-77
2023/09/09 07:27:31;;;;;;;;;;;;;;;21.50;29.48;98275.28;5050496;28;932;-77
2023/09/09 07:29:57;;;;;;;;;;;;;;;21.64;29.38;98283.47;5017714;28;968;-77
2023/09/09 07:32:22;;;;;;;;;;;;;;;21.68;29.38;98280.56;5050555;28;870;-77
2023/09/09 07:34:48;;;;;;;;;;;;;;;21.88;28.95;98283.38;5017260;28;1910;-78
2023/09/09 07:37:14;;;;;;;;;;;;;;;21.63;29.54;98270.56;5050617;28;1014;-77
2023/09/09 07:39:45;;;;;;;;;;;;;;;21.49;29.75;98283.00;5033906;28;889;-77
2023/09/09 07:42:14;;;;;;;;;;;;;;;21.65;29.51;98276.56;5050340;28;1011;-77
2023/09/09 07:44:39;;;;;;;;;;;;;;;21.67;29.58;98279.00;5035451;28;927;-77
2023/09/09 07:47:07;;;;;;;;;;;;;;;21.48;29.66;98278.56;5035447;28;944;-77
2023/09/09 07:49:35;;;;;;;;;;;;;;;21.46;29.81;98275.41;5054859;28;916;-77
2023/09/09 07:52:02;;;;;;;;;;;;;;;21.71;29.49;98277.69;5040021;28;931;-76
2023/09/09 07:54:28;;;;;;;;;;;;;;;21.74;29.09;98279.63;5071612;28;867;-77
2023/09/09 07:56:53;;;;;;;;;;;;;;;21.50;29.75;98283.78;5054669;28;1906;-78
2023/09/09 07:59:19;;;;;;;;;;;;;;;21.67;29.47;98285.44;5072014;28;1216;-79
2023/09/09 08:01:45;;;;;;;;;;;;;;;21.58;29.36;98285.25;5077267;28;1227;-77
2023/09/09 08:04:10;;;;;;;;;;;;;;;21.38;30.28;98281.63;5076928;28;941;-77
2023/09/09 08:06:36;;;;;;;;;;;;;;;21.27;30.05;98279.78;5077518;28;945;-77
2023/09/09 08:09:01;;;;;;;;;;;;;;;21.11;30.28;98287.44;5077017;28;991;-78
2023/09/09 08:11:27;;;;;;;;;;;;;;;21.10;30.46;98285.84;5073697;28;1233;-78
2023/09/09 08:13:52;;;;;;;;;;;;;;;21.39;29.88;98280.41;5057170;28;886;-78
2023/09/09 08:16:18;;;;;;;;;;;;;;;21.76;29.25;98277.16;5057127;28;1910;-78
2023/09/09 08:18:43;;;;;;;;;;;;;;;21.50;29.83;98280.97;5024112;28;1141;-78
2023/09/09 08:21:10;;;;;;;;;;;;;;;21.49;29.57;98276.53;5023697;28;1591;-78
2023/09/09 08:23:36;;;;;;;;;;;;;;;21.70;29.34;98283.75;5020559;28;1408;-78
2023/09/09 08:26:01;;;;;;;;;;;;;;;21.73;29.23;98278.03;5039518;28;1524;-79
2023/09/09 08:28:27;;;;;;;;;;;;;;;21.65;29.42;98276.56;5040065;28;1389;-78
2023/09/09 08:30:59;;;;;;;;;;;;;;;21.73;29.20;98280.84;5006694;28;1723;-78
2023/09/09 08:33:24;;;;;;;;;;;;;;;21.51;29.51;98282.56;4982265;28;1565;-78
2023/09/09 08:35:50;;;;;;;;;;;;;;;21.26;29.88;98274.59;4981069;28;1906;-78
2023/09/09 08:38:15;;;;;;;;;;;;;;;21.32;30.08;98268.00;4980746;28;1057;-78
2023/09/09 08:40:49;;;;;;;;;;;;;;;21.36;30.12;98275.63;4997379;28;882;-79
2023/09/09 08:43:19;;;;;;;;;;;;;;;21.69;29.39;98277.31;4977959;28;1049;-78
2023/09/09 08:45:44;;;;;;;;;;;;;;;21.54;29.89;98267.53;4977983;28;1039;-78
2023/09/09 08:48:10;;;;;;;;;;;;;;;21.69;29.54;98265.97;4960577;28;859;-78
2023/09/09 08:50:39;;;;;;;;;;;;;;;21.65;29.38;98253.91;4974364;28;1614;-79
2023/09/09 08:53:07;;;;;;;;;;;;;;;21.63;29.45;98267.72;4961325;28;1651;-79
2023/09/09 08:55:33;;;;;;;;;;;;;;;21.81;29.12;98255.97;4961514;28;1973;-78
2023/09/09 08:57:58;;;;;;;;;;;;;;;21.71;29.16;98257.84;4976984;28;821;-78
2023/09/09 09:00:29;;;;;;;;;;;;;;;21.29;29.79;98266.00;4961652;28;967;-78
2023/09/09 09:02:54;;;;;;;;;;;;;;;21.62;29.53;98249.16;4961297;28;851;-78
2023/09/09 09:05:20;;;;;;;;;;;;;;;21.79;29.26;98253.59;4961393;28;879;-78
2023/09/09 09:07:45;;;;;;;;;;;;;;;21.88;28.97;98260.72;4971708;28;831;-78
2023/09/09 09:10:11;;;;;;;;;;;;;;;21.94;28.68;98261.78;5019005;28;1149;-77
2023/09/09 09:12:36;;;;;;;;;;;;;;;21.52;29.61;98255.84;5003434;28;1146;-78
2023/09/09 09:15:03;;;;;;;;;;;;;;;21.44;29.98;98251.56;5066482;28;1901;-78
2023/09/09 09:17:29;;;;;;;;;;;;;;;21.53;30.04;98263.09;5040730;28;950;-78
2023/09/09 09:19:55;;;;;;;;;;;;;;;21.68;29.78;98255.09;5056452;28;1311;-78
2023/09/09 09:22:20;;;;;;;;;;;;;;;21.61;29.76;98253.22;5040654;28;832;-78
2023/09/09 09:24:46;;;;;;;;;;;;;;;21.44;30.11;98249.53;5039312;28;798;-78
2023/09/09 09:27:11;;;;;;;;;;;;;;;21.64;29.61;98243.84;5057912;28;913;-77
2023/09/09 09:29:38;;;;;;;;;;;;;;;21.12;30.31;98250.19;5039836;28;1514;-78
2023/09/09 09:32:04;;;;;;;;;;;;;;;21.41;29.73;98233.44;5056605;28;829;-78
2023/09/09 09:34:33;;;;;;;;;;;;;;;21.49;30.06;98251.06;5049856;28;1515;-78
2023/09/09 09:37:00;;;;;;;;;;;;;;;21.57;30.02;98253.31;5036036;28;1914;-78
2023/09/09 09:39:32;;;;;;;;;;;;;;;21.66;29.56;98249.06;5036756;28;1370;-77
2023/09/09 09:41:58;;;;;;;;;;;;;;;21.67;29.65;98245.81;5036437;28;1305;-78
2023/09/09 09:44:23;;;;;;;;;;;;;;;21.61;29.81;98253.22;5036310;28;904;-77
2023/09/09 09:47:03;;;;;;;;;;;;;;;21.40;29.84;98237.50;5036488;28;879;-78
2023/09/09 09:49:35;;;;;;;;;;;;;;;21.71;29.54;98234.38;5035857;28;910;-78
2023/09/09 09:52:00;;;;;;;;;;;;;;;21.90;29.27;98227.84;5036003;28;839;-78
2023/09/09 09:54:26;;;;;;;;;;;;;;;21.81;29.20;98231.31;5037440;28;802;-79
2023/09/09 09:56:52;;;;;;;;;;;;;;;21.58;29.81;98232.22;5037247;28;1985;-78
2023/09/09 09:59:18;;;;;;;;;;;;;;;21.25;30.26;98225.69;4998540;28;899;-78
2023/09/09 10:01:44;;;;;;;;;;;;;;;21.89;29.40;98229.09;4999257;28;1239;-78
2023/09/09 10:04:09;;;;;;;;;;;;;;;22.04;29.01;98223.88;4999011;28;898;-78
2023/09/09 10:06:35;;;;;;;;;;;;;;;21.87;29.12;98225.13;4998820;28;960;-78
2023/09/09 10:09:06;;;;;;;;;;;;;;;21.59;29.77;98210.38;4998105;28;1011;-77
2023/09/09 10:11:36;;;;;;;;;;;;;;;21.53;29.84;98218.59;5014563;28;1204;-78
2023/09/09 10:14:01;;;;;;;;;;;;;;;21.45;30.07;98213.53;4998770;28;878;-78
2023/09/09 10:16:28;;;;;;;;;;;;;;;21.80;29.71;98209.88;5007732;28;1915;-79
2023/09/09 10:18:53;;;;;;;;;;;;;;;22.00;29.32;98212.63;5002205;28;1090;-78
2023/09/09 10:21:19;;;;;;;;;;;;;;;21.96;29.46;98211.13;5018223;28;814;-78
2023/09/09 10:23:45;;;;;;;;;;;;;;;21.50;29.91;98218.66;5018229;28;1095;-79
2023/09/09 10:26:10;;;;;;;;;;;;;;;21.46;30.23;98206.66;5018653;28;1155;-78
2023/09/09 10:28:36;;;;;;;;;;;;;;;21.51;29.88;98211.81;5001817;28;1120;-79
2023/09/09 10:31:01;;;;;;;;;;;;;;;21.96;29.27;98211.13;5027377;28;1190;-78
2023/09/09 10:33:30;;;;;;;;;;;;;;;21.75;29.52;98213.22;5017711;28;924;-77
2023/09/09 10:35:55;;;;;;;;;;;;;;;21.41;30.37;98201.50;5018405;28;1914;-78
2023/09/09 10:38:21;;;;;;;;;;;;;;;21.94;29.41;98203.06;5034479;28;880;-78
2023/09/09 10:40:48;;;;;;;;;;;;;;;21.74;29.50;98202.34;5017784;28;979;-78
2023/09/09 10:43:13;;;;;;;;;;;;;;;21.95;29.40;98203.88;5017721;28;984;-78
2023/09/09 10:45:42;;;;;;;;;;;;;;;22.02;28.84;98193.16;5017757;28;936;-78
2023/09/09 10:48:10;;;;;;;;;;;;;;;21.57;29.75;98195.88;5017858;28;849;-77
2023/09/09 10:50:41;;;;;;;;;;;;;;;21.57;30.03;98205.16;5017928;28;953;-77
2023/09/09 10:53:13;;;;;;;;;;;;;;;21.82;29.71;98200.94;5018466;28;914;-78
2023/09/09 10:55:39;;;;;;;;;;;;;;;21.64;30.00;98201.38;5017797;28;1906;-78
2023/09/09 10:58:08;;;;;;;;;;;;;;;21.94;29.27;98199.44;5018181;28;1253;-78
2023/09/09 11:00:40;;;;;;;;;;;;;;;21.89;29.76;98189.44;5017724;28;838;-78
2023/09/09 11:03:17;;;;;;;;;;;;;;;21.64;29.99;98201.38;5052888;28;925;-77
2023/09/09 11:05:58;;;;;;;;;;;;;;;21.63;29.87;98188.44;5038357;28;939;-78
2023/09/09 11:08:35;;;;;;;;;;;;;;;21.60;30.05;98183.66;5038501;28;1473;-78
2023/09/09 11:11:08;;;;;;;;;;;;;;;21.84;29.72;98181.47;5038778;28;1530;-77
2023/09/09 11:13:41;;;;;;;;;;;;;;;21.79;29.67;98184.81;5027528;28;1538;-76
2023/09/09 11:16:06;;;;;;;;;;;;;;;21.91;29.62;98169.16;5035753;28;1975;-77
2023/09/09 11:18:35;;;;;;;;;;;;;;;21.60;30.01;98183.66;5035220;28;1095;-77
2023/09/09 11:21:02;;;;;;;;;;;;;;;21.70;29.98;98181.81;5037175;28;768;-78
2023/09/09 11:23:28;;;;;;;;;;;;;;;21.90;29.50;98173.22;5053856;28;1519;-77
2023/09/09 11:25:53;;;;;;;;;;;;;;;21.59;29.89;98176.41;5058988;28;1617;-78
2023/09/09 11:28:19;;;;;;;;;;;;;;;22.02;29.42;98175.34;5058273;28;1755;-77
2023/09/09 11:30:44;;;;;;;;;;;;;;;22.14;29.08;98171.84;5058843;28;911;-78
2023/09/09 11:33:15;;;;;;;;;;;;;;;21.76;29.89;98163.88;5058936;28;1135;-77
2023/09/09 11:35:40;;;;;;;;;;;;;;;21.74;30.07;98157.81;5059203;28;1906;-77
2023/09/09 11:38:06;;;;;;;;;;;;;;;21.88;29.64;98168.00;5058900;28;832;-77
2023/09/09 11:40:31;;;;;;;;;;;;;;;21.64;29.95;98156.06;5058383;28;857;-78
2023/09/09 11:42:57;;;;;;;;;;;;;;;21.87;29.72;98163.59;5058470;28;1078;-77
2023/09/09 11:45:23;;;;;;;;;;;;;;;22.05;29.29;98151.78;5058575;28;930;-77
2023/09/09 11:47:48;;;;;;;;;;;;;;;21.88;29.59;98153.06;5059326;28;858;-77
2023/09/09 11:50:14;;;;;;;;;;;;;;;21.95;29.04;98153.66;5058202;28;1081;-77
2023/09/09 11:52:39;;;;;;;;;;;;;;;21.80;29.40;98136.22;5059513;28;753;-78
2023/09/09 11:55:05;;;;;;;;;;;;;;;21.36;30.21;98139.75;5059338;28;1901;-77
2023/09/09 11:57:31;;;;;;;;;;;;;;;21.62;30.00;98147.22;5059800;28;778;-77
2023/09/09 11:59:57;;;;;;;;;;;;;;;21.63;30.19;98148.81;5060001;28;783;-77
2023/09/09 12:02:23;;;;;;;;;;;;;;;21.69;30.02;98141.38;5059627;28;790;-77
2023/09/09 12:05:07;;;;;;;;;;;;;;;21.63;30.18;98143.13;5057969;28;968;-77
2023/09/09 12:07:34;;;;;;;;;;;;;;;21.75;30.16;98142.41;5058254;28;940;-77
2023/09/09 12:10:02;;;;;;;;;;;;;;;21.88;29.82;98141.72;5057506;28;1321;-77
2023/09/09 12:12:28;;;;;;;;;;;;;;;21.96;29.78;98137.44;5057852;28;894;-77
2023/09/09 12:14:53;;;;;;;;;;;;;;;21.92;29.70;98142.44;5057948;28;1975;-77
2023/09/09 12:17:19;;;;;;;;;;;;;;;22.09;29.39;98144.78;5058323;28;850;-77
2023/09/09 12:19:54;;;;;;;;;;;;;;;21.74;29.87;98137.22;5057662;28;1344;-78
2023/09/09 12:22:52;;;;;;;;;;;;;;;21.64;30.15;98139.06;5041622;28;961;-77
2023/09/09 12:25:33;;;;;;;;;;;;;;;21.85;29.78;98149.06;5039829;28;1083;-78
2023/09/09 12:27:58;;;;;;;;;;;;;;;21.70;29.77;98137.28;5023381;28;983;-77
2023/09/09 12:30:33;;;;;;;;;;;;;;;21.63;30.19;98137.47;5040373;28;954;-78
2023/09/09 12:33:05;;;;;;;;;;;;;;;22.07;29.41;98135.13;5055587;28;877;-77
2023/09/09 12:35:34;;;;;;;;;;;;;;;21.87;29.72;98135.28;5056309;28;1984;-78
2023/09/09 12:37:59;;;;;;;;;;;;;;;21.99;29.64;98134.53;5039701;28;803;-78
2023/09/09 12:40:25;;;;;;;;;;;;;;;21.88;29.89;98136.06;5056522;28;928;-78
2023/09/09 12:42:53;;;;;;;;;;;;;;;21.86;30.03;98139.31;5039900;28;1214;-78
2023/09/09 12:45:19;;;;;;;;;;;;;;;21.67;30.30;98141.03;5039767;28;1158;-78
2023/09/09 12:47:44;;;;;;;;;;;;;;;21.49;30.52;98140.66;5053370;28;1158;-78
2023/09/09 12:50:10;;;;;;;;;;;;;;;21.74;30.11;98138.00;5039367;28;1310;-78
2023/09/09 12:52:35;;;;;;;;;;;;;;;21.76;29.87;98135.53;5056207;28;863;-78
2023/09/09 12:55:01;;;;;;;;;;;;;;;21.53;29.97;98130.84;5039542;28;1906;-78
2023/09/09 12:57:27;;;;;;;;;;;;;;;21.93;29.46;98132.69;5056429;28;778;-78